SBPA/POA METAR and TAF weather

Enter ICAO airport designator
Station Type Date Time Source
SBPA METAR 2020/07/05 05:00 UTC NOAA

SBPA 050500Z 10003KT CAVOK 13/11 Q1010


Station Type Date Time Source
SBPA Decoded METAR 2020/07/05 05:00 UTC NOAA

Porto Alegre Aero-Porto , Brazil (SBPA) 30-00S 051-11W 3M
Jul 05, 2020 - 01:00 AM EDT / 2020.07.05 0500 UTC
Wind: from the E (100 degrees) at 3 MPH (3 KT):0
Visibility: greater than 7 mile(s):0
Temperature: 55 F (13 C)
Dew Point: 51 F (11 C)
Relative Humidity: 87%
Pressure (altimeter): 29.83 in. Hg (1010 hPa)
ob: SBPA 050500Z 10003KT CAVOK 13/11 Q1010
cycle: 5

Station Type Date Time Source
SBPA TAF 2020/07/05 06:09 UTC NOAA

TAF SBPA 050300Z 0506/0606 07006KT 9999 SCT030 TN11/0508Z TX20/0518Z
BECMG 0506/0508 29007KT BKN020 PROB40
TEMPO 0508/0512 5000 TSRA BKN015 FEW035CB PROB40
TEMPO 0512/0518 8000 RA SCT010 BKN020
BECMG 0518/0520 23007KT SCT012 BKN020
RMK PEB

Example: see airport list